Time;durP1;ratioP1;P1;durP2;ratioP2;P2;SDS_P1;SDS_P2;PMS_P1;PMS_P2;Temp;Humidity;BMP_temperature;BMP_pressure;BME280_temperature;BME280_humidity;BME280_pressure;Samples;Min_cycle;Max_cycle;Signal;HPM_P1;HPM_P2
2023/10/07 00:00:40;;;;;;;28.58;22.63;;;22.50;82.70;;;;;;6215394;23;20439;-79
2023/10/07 00:03:06;;;;;;;27.73;22.95;;;22.50;82.90;;;;;;6189067;23;20074;-81
2023/10/07 00:05:35;;;;;;;30.83;23.92;;;22.50;83.10;;;;;;6216683;23;20454;-81
2023/10/07 00:08:16;;;;;;;32.67;23.95;;;22.50;83.20;;;;;;6216035;22;20008;-78
2023/10/07 00:10:44;;;;;;;29.73;22.88;;;22.40;83.20;;;;;;6246523;23;20083;-80
2023/10/07 00:13:10;;;;;;;28.77;21.55;;;22.40;83.30;;;;;;6245381;23;20000;-79
2023/10/07 00:15:37;;;;;;;29.27;21.75;;;22.50;83.40;;;;;;6245241;23;20048;-80
2023/10/07 00:18:16;;;;;;;25.30;21.88;;;22.50;83.30;;;;;;6245168;23;20396;-79
2023/10/07 00:20:50;;;;;;;28.40;23.73;;;22.50;83.80;;;;;;6218367;23;20035;-80
2023/10/07 00:23:21;;;;;;;31.85;24.52;;;22.50;83.40;;;;;;6245170;23;20005;-79
2023/10/07 00:25:51;;;;;;;39.78;26.30;;;22.50;83.40;;;;;;6245217;23;20007;-80
2023/10/07 00:28:19;;;;;;;28.35;24.38;;;22.50;83.50;;;;;;6245530;23;20007;-79
2023/10/07 00:30:46;;;;;;;30.73;24.02;;;22.40;83.50;;;;;;6242178;23;20046;-79
2023/10/07 00:33:14;;;;;;;30.58;25.25;;;22.40;83.80;;;;;;6245382;23;20007;-79
2023/10/07 00:35:40;;;;;;;31.63;25.02;;;22.40;84.00;;;;;;6244986;23;20015;-78
2023/10/07 00:38:13;;;;;;;32.30;26.73;;;22.30;84.20;;;;;;6244462;23;20000;-80
2023/10/07 00:40:52;;;;;;;33.17;25.80;;;22.30;84.40;;;;;;6245107;23;20469;-80
2023/10/07 00:43:30;;;;;;;32.60;26.23;;;22.30;84.30;;;;;;6244824;23;19996;-79
2023/10/07 00:46:10;;;;;;;32.10;26.63;;;22.20;84.50;;;;;;6244815;23;20040;-79
2023/10/07 00:48:56;;;;;;;31.50;27.05;;;22.20;84.40;;;;;;6217770;23;20376;-79
2023/10/07 00:51:33;;;;;;;36.13;26.77;;;22.20;84.70;;;;;;6244776;23;20031;-79
2023/10/07 00:54:30;;;;;;;33.85;26.08;;;22.20;85.00;;;;;;6245082;23;20083;-80
2023/10/07 00:57:24;;;;;;;33.10;26.77;;;22.10;84.90;;;;;;6244965;23;19997;-80
2023/10/07 00:59:50;;;;;;;34.50;27.50;;;22.10;85.50;;;;;;6243267;23;20400;-80
2023/10/07 01:02:23;;;;;;;35.85;27.20;;;22.10;85.40;;;;;;6244920;23;20004;-80
2023/10/07 01:04:49;;;;;;;34.00;27.10;;;22.10;85.50;;;;;;6244687;23;20378;-79
2023/10/07 01:07:19;;;;;;;30.10;25.98;;;22.00;85.60;;;;;;6244577;23;20004;-79
2023/10/07 01:10:04;;;;;;;32.78;27.63;;;22.00;85.70;;;;;;6244750;23;20016;-80
2023/10/07 01:12:36;;;;;;;31.63;25.70;;;22.00;85.60;;;;;;6245015;23;20000;-81
2023/10/07 01:15:04;;;;;;;36.00;27.05;;;22.00;85.40;;;;;;6244297;23;20016;-80
2023/10/07 01:17:31;;;;;;;32.80;26.77;;;22.00;85.50;;;;;;6244794;23;20008;-79
2023/10/07 01:19:57;;;;;;;30.23;25.30;;;21.90;85.50;;;;;;6244808;23;20071;-79
2023/10/07 01:22:35;;;;;;;30.85;24.90;;;21.90;85.70;;;;;;6245117;23;20363;-79
2023/10/07 01:25:06;;;;;;;30.77;24.92;;;21.90;85.70;;;;;;6245418;23;20019;-80
2023/10/07 01:27:35;;;;;;;27.58;22.70;;;21.90;85.40;;;;;;6245183;23;20070;-80
2023/10/07 01:30:07;;;;;;;31.00;22.90;;;21.90;85.50;;;;;;6245897;23;20007;-80
2023/10/07 01:32:33;;;;;;;26.25;22.65;;;21.90;85.90;;;;;;6247033;23;20054;-79
2023/10/07 01:35:05;;;;;;;27.30;23.35;;;22.00;85.30;;;;;;6247792;23;20098;-79
2023/10/07 01:37:42;;;;;;;29.65;23.77;;;22.00;84.90;;;;;;6246891;23;19997;-79
2023/10/07 01:40:14;;;;;;;24.20;21.60;;;22.00;84.90;;;;;;6246837;23;20450;-80
2023/10/07 01:42:42;;;;;;;30.75;21.70;;;22.10;85.10;;;;;;6249155;23;20441;-79
2023/10/07 01:45:19;;;;;;;25.85;21.92;;;22.00;84.80;;;;;;6248016;23;20134;-81
2023/10/07 01:47:47;;;;;;;29.58;21.15;;;22.10;85.30;;;;;;6246821;23;20031;-79
2023/10/07 01:50:14;;;;;;;26.73;20.90;;;22.10;84.80;;;;;;6246898;23;20012;-80
2023/10/07 01:52:39;;;;;;;27.35;21.83;;;22.10;84.90;;;;;;6246611;23;20000;-80
2023/10/07 01:55:09;;;;;;;30.25;21.45;;;22.10;84.90;;;;;;6246401;23;20395;-80
2023/10/07 01:57:35;;;;;;;27.13;21.02;;;22.00;84.60;;;;;;6220315;23;20004;-79
2023/10/07 02:00:06;;;;;;;29.60;20.52;;;22.00;84.60;;;;;;6246196;23;20322;-79
2023/10/07 02:02:31;;;;;;;25.73;20.70;;;21.90;84.60;;;;;;6244911;23;19996;-80
2023/10/07 02:04:58;;;;;;;26.48;20.52;;;21.90;84.70;;;;;;6246626;23;20012;-79
2023/10/07 02:07:24;;;;;;;24.58;19.48;;;21.90;84.70;;;;;;6246402;23;20012;-79
2023/10/07 02:09:54;;;;;;;24.63;19.73;;;21.90;84.50;;;;;;6246049;23;20020;-80
2023/10/07 02:12:19;;;;;;;27.98;19.35;;;21.90;84.30;;;;;;6246541;23;20012;-80
2023/10/07 02:14:45;;;;;;;24.00;20.17;;;21.90;84.10;;;;;;6246195;23;20083;-80
2023/10/07 02:17:12;;;;;;;24.55;20.63;;;22.00;84.10;;;;;;6246318;23;20004;-80
2023/10/07 02:19:40;;;;;;;24.67;20.05;;;22.00;84.30;;;;;;6246519;23;20012;-79
2023/10/07 02:22:22;;;;;;;27.02;22.02;;;22.00;84.30;;;;;;6246304;23;20001;-80
2023/10/07 02:24:59;;;;;;;25.27;21.60;;;22.00;84.70;;;;;;6246643;23;20034;-79
2023/10/07 02:27:25;;;;;;;27.73;21.95;;;22.00;84.10;;;;;;6246490;23;20079;-79
2023/10/07 02:29:52;;;;;;;24.10;20.60;;;21.90;84.40;;;;;;6246399;23;20080;-81
2023/10/07 02:32:19;;;;;;;24.67;20.27;;;21.90;84.40;;;;;;6246060;23;20007;-79
2023/10/07 02:34:51;;;;;;;24.60;20.58;;;21.80;84.50;;;;;;6245852;23;20012;-79
2023/10/07 02:37:29;;;;;;;22.27;19.88;;;21.90;84.60;;;;;;6246078;23;20418;-81
2023/10/07 02:39:56;;;;;;;26.40;20.67;;;21.80;84.40;;;;;;6246227;23;20008;-79
2023/10/07 02:42:28;;;;;;;23.83;19.35;;;21.80;84.40;;;;;;6246059;23;19996;-80
2023/10/07 02:45:01;;;;;;;23.85;20.60;;;21.80;84.40;;;;;;6218804;23;20323;-79
2023/10/07 02:47:31;;;;;;;26.77;19.27;;;21.70;84.20;;;;;;6245612;23;20365;-78
2023/10/07 02:50:00;;;;;;;24.38;19.70;;;21.70;84.40;;;;;;6245821;23;20434;-79
2023/10/07 02:52:36;;;;;;;22.45;18.10;;;21.60;84.20;;;;;;6245783;23;20080;-79
2023/10/07 02:55:28;;;;;;;22.20;18.27;;;21.60;85.10;;;;;;6245956;23;20134;-80
2023/10/07 02:57:55;;;;;;;21.92;16.77;;;21.60;84.50;;;;;;6245220;22;20008;-79
2023/10/07 03:01:10;;;;;;;18.90;16.38;;;21.60;84.60;;;;;;6245627;23;20067;-79
2023/10/07 03:05:52;;;;;;;21.08;17.00;;;21.60;84.30;;;;;;6246903;23;20132;-80
2023/10/07 03:08:21;;;;;;;20.80;16.52;;;21.60;84.10;;;;;;6244767;22;20422;-79
2023/10/07 03:11:10;;;;;;;17.52;15.40;;;21.50;84.60;;;;;;6245635;23;20035;-79
2023/10/07 03:13:39;;;;;;;19.50;16.35;;;21.60;84.20;;;;;;6244965;23;20067;-79
2023/10/07 03:24:10;;;;;;;20.05;16.52;;;21.70;83.90;;;;;;6248016;23;20008;-79
2023/10/07 03:26:41;;;;;;;20.38;15.48;;;21.70;83.70;;;;;;6218773;23;20430;-80
2023/10/07 03:29:16;;;;;;;18.73;15.20;;;21.70;83.90;;;;;;6245381;23;20008;-78
2023/10/07 03:34:12;;;;;;;21.55;16.58;;;21.60;84.10;;;;;;6248259;23;20097;-78
2023/10/07 03:36:41;;;;;;;22.58;17.73;;;21.60;84.10;;;;;;6245629;23;20004;-78
2023/10/07 03:39:26;;;;;;;22.20;17.13;;;21.50;84.30;;;;;;6245403;23;20064;-81
2023/10/07 03:41:55;;;;;;;25.50;17.00;;;21.50;84.80;;;;;;6218570;23;20004;-79
2023/10/07 03:44:25;;;;;;;22.67;16.92;;;21.50;84.30;;;;;;6246432;23;20012;-79
2023/10/07 03:46:55;;;;;;;21.92;17.88;;;21.50;84.20;;;;;;6245815;23;20015;-79
2023/10/07 03:49:33;;;;;;;23.00;16.73;;;21.50;84.20;;;;;;6245483;23;20150;-79
2023/10/07 03:52:07;;;;;;;21.90;17.17;;;21.50;84.30;;;;;;6245493;23;20039;-79
2023/10/07 03:54:34;;;;;;;22.50;17.48;;;21.50;84.30;;;;;;6245062;23;20004;-79
2023/10/07 03:57:00;;;;;;;20.02;15.25;;;21.50;84.20;;;;;;6245327;23;19997;-68
2023/10/07 03:59:27;;;;;;;25.20;14.90;;;21.50;84.10;;;;;;6244462;23;20075;-79
2023/10/07 04:01:53;;;;;;;20.65;14.35;;;21.40;83.70;;;;;;6245231;23;20000;-80
2023/10/07 04:04:22;;;;;;;18.20;15.13;;;21.30;83.90;;;;;;6245124;23;20054;-80
2023/10/07 04:06:51;;;;;;;20.38;15.13;;;21.30;83.80;;;;;;6245102;23;20054;-79
2023/10/07 04:09:21;;;;;;;24.17;15.20;;;21.30;83.50;;;;;;6218699;23;20024;-80
2023/10/07 04:11:50;;;;;;;16.92;14.02;;;21.30;84.20;;;;;;6249612;23;20044;-79
2023/10/07 04:14:27;;;;;;;16.80;13.35;;;21.30;83.70;;;;;;6245399;23;20098;-78
2023/10/07 04:16:54;;;;;;;19.13;14.30;;;21.30;83.20;;;;;;6245565;22;20007;-79
2023/10/07 04:21:51;;;;;;;17.50;13.75;;;21.30;82.70;;;;;;6245897;23;20039;-78
2023/10/07 04:24:20;;;;;;;21.23;13.15;;;21.20;82.40;;;;;;6245390;23;20012;-79
2023/10/07 04:26:54;;;;;;;18.63;12.98;;;21.20;82.30;;;;;;6245181;23;20011;-78
2023/10/07 04:29:21;;;;;;;17.33;13.30;;;21.20;82.00;;;;;;6244982;23;20038;-78
2023/10/07 04:31:57;;;;;;;19.63;13.82;;;21.20;81.80;;;;;;6218024;23;20008;-79
2023/10/07 04:34:24;;;;;;;19.23;12.95;;;21.10;82.60;;;;;;6244751;23;20437;-78
2023/10/07 04:40:53;;;;;;;17.85;13.13;;;21.10;82.40;;;;;;6247280;23;20010;-80
2023/10/07 04:42:21;;;;;;;19.95;14.45;;;21.00;81.80;;;;;;6244560;23;20434;-80
2023/10/07 04:50:00;;;;;;;17.98;14.85;;;21.00;82.00;;;;;;6245515;22;20091;-79
2023/10/07 04:52:30;;;;;;;21.55;16.25;;;21.00;81.80;;;;;;6244735;23;20418;-80
2023/10/07 04:54:59;;;;;;;22.60;16.23;;;21.00;81.70;;;;;;6244657;23;20012;-79
2023/10/07 04:57:44;;;;;;;21.38;15.18;;;21.00;81.70;;;;;;6244963;23;19997;-80
2023/10/07 05:00:27;;;;;;;22.23;15.07;;;21.00;81.30;;;;;;6244844;23;20015;-80
2023/10/07 05:03:01;;;;;;;21.33;15.32;;;21.00;81.80;;;;;;6244540;23;20003;-80
2023/10/07 05:05:33;;;;;;;19.10;15.55;;;21.00;81.90;;;;;;6245217;23;20055;-80
2023/10/07 05:08:16;;;;;;;20.60;15.30;;;21.00;81.50;;;;;;6218385;23;20079;-80
2023/10/07 05:10:42;;;;;;;20.20;15.05;;;20.90;81.50;;;;;;6247624;23;20529;-79
2023/10/07 05:13:10;;;;;;;17.90;14.20;;;20.90;81.00;;;;;;6248055;23;20043;-79
2023/10/07 05:15:38;;;;;;;23.10;15.52;;;20.80;80.90;;;;;;6248616;22;20016;-79
2023/10/07 05:18:05;;;;;;;18.20;14.60;;;20.70;80.90;;;;;;6248507;22;20059;-78
2023/10/07 05:20:37;;;;;;;16.60;14.13;;;20.80;81.10;;;;;;6248448;22;20001;-81
2023/10/07 05:23:04;;;;;;;18.88;14.52;;;20.80;81.50;;;;;;6249185;22;20012;-80
2023/10/07 05:25:43;;;;;;;17.75;13.75;;;20.80;80.90;;;;;;6248079;23;20008;-78
2023/10/07 05:28:16;;;;;;;19.25;13.80;;;20.80;80.80;;;;;;6248029;23;20016;-80
2023/10/07 05:30:50;;;;;;;18.42;13.38;;;20.80;80.70;;;;;;6248210;23;20304;-80
2023/10/07 05:33:26;;;;;;;20.15;13.88;;;20.80;80.70;;;;;;6248509;23;20337;-79
2023/10/07 05:36:03;;;;;;;20.40;13.88;;;20.80;80.70;;;;;;6248438;23;20008;-78
2023/10/07 05:38:30;;;;;;;20.73;13.80;;;20.80;81.30;;;;;;6248348;23;20062;-79
2023/10/07 05:41:00;;;;;;;19.05;14.30;;;20.80;80.80;;;;;;6247974;23;20076;-79
2023/10/07 05:43:26;;;;;;;17.92;13.52;;;20.90;80.50;;;;;;6247843;23;20001;-79
2023/10/07 05:45:53;;;;;;;17.60;14.10;;;20.90;80.40;;;;;;6222011;23;20153;-80
2023/10/07 05:48:19;;;;;;;20.90;14.32;;;20.90;80.40;;;;;;6248126;23;20008;-79
2023/10/07 05:50:44;;;;;;;18.42;13.82;;;20.90;80.40;;;;;;6247861;23;20022;-79
2023/10/07 05:53:10;;;;;;;18.40;13.02;;;20.90;80.60;;;;;;6247987;23;20004;-79
2023/10/07 05:55:36;;;;;;;20.25;14.23;;;20.80;80.70;;;;;;6221131;23;20055;-80
2023/10/07 05:58:05;;;;;;;18.48;13.82;;;20.90;80.70;;;;;;6248521;23;20426;-79
2023/10/07 06:00:36;;;;;;;18.55;13.65;;;20.80;80.70;;;;;;6247843;23;20015;-80
2023/10/07 06:03:05;;;;;;;19.05;14.10;;;20.90;80.90;;;;;;6248200;22;20019;-78
2023/10/07 06:05:33;;;;;;;17.48;13.38;;;21.00;80.00;;;;;;6249038;23;20004;-79
